Time;durP1;ratioP1;P1;durP2;ratioP2;P2;SDS_P1;SDS_P2;PMS_P1;PMS_P2;Temp;Humidity;BMP_temperature;BMP_pressure;BME280_temperature;BME280_humidity;BME280_pressure;Samples;Min_cycle;Max_cycle;Signal;HPM_P1;HPM_P2
2024/01/20 00:01:25;;;;;;;7.45;2.83;;;;;;;;;;5022928;28;20049;-67
2024/01/20 00:03:52;;;;;;;11.95;3.22;;;;;;;;;;5023794;28;20077;-67
2024/01/20 00:06:18;;;;;;;7.32;2.70;;;;;;;;;;5022804;28;20063;-67
2024/01/20 00:08:44;;;;;;;8.68;2.90;;;;;;;;;;5024525;28;20037;-67
2024/01/20 00:11:10;;;;;;;8.95;3.13;;;;;;;;;;5024310;28;20044;-67
2024/01/20 00:13:36;;;;;;;10.05;3.17;;;;;;;;;;5023995;28;20036;-67
2024/01/20 00:16:02;;;;;;;7.47;2.70;;;;;;;;;;5023587;28;20025;-67
2024/01/20 00:18:28;;;;;;;7.70;3.33;;;;;;;;;;5022163;28;20053;-67
2024/01/20 00:20:54;;;;;;;11.57;3.22;;;;;;;;;;5022415;28;21116;-67
2024/01/20 00:23:20;;;;;;;7.70;2.92;;;;;;;;;;5021847;28;20928;-67
2024/01/20 00:25:46;;;;;;;9.68;3.25;;;;;;;;;;5023788;28;20391;-67
2024/01/20 00:28:13;;;;;;;9.88;3.47;;;;;;;;;;5023186;28;20052;-67
2024/01/20 00:30:39;;;;;;;16.05;4.22;;;;;;;;;;5024174;28;20045;-67
2024/01/20 00:33:08;;;;;;;12.18;3.40;;;;;;;;;;5021552;28;21737;-67
2024/01/20 00:35:36;;;;;;;9.05;3.20;;;;;;;;;;5023112;28;20083;-67
2024/01/20 00:38:02;;;;;;;8.95;3.13;;;;;;;;;;5022553;28;20044;-67
2024/01/20 00:40:28;;;;;;;9.50;3.42;;;;;;;;;;5023045;28;20037;-67
2024/01/20 00:42:54;;;;;;;10.13;3.58;;;;;;;;;;5022770;28;20025;-67
2024/01/20 00:45:21;;;;;;;15.85;4.18;;;;;;;;;;5023413;28;20047;-67
2024/01/20 00:47:47;;;;;;;9.70;3.72;;;;;;;;;;5022024;28;20029;-67
2024/01/20 00:50:13;;;;;;;13.48;4.30;;;;;;;;;;5020744;28;20116;-67
2024/01/20 00:52:39;;;;;;;15.45;4.18;;;;;;;;;;5021007;28;20033;-67
2024/01/20 00:55:05;;;;;;;10.90;3.85;;;;;;;;;;5021667;28;20696;-67
2024/01/20 00:57:31;;;;;;;10.68;3.63;;;;;;;;;;5023400;28;20041;-67
2024/01/20 00:59:57;;;;;;;7.13;3.33;;;;;;;;;;5024145;28;20025;-67
2024/01/20 01:02:25;;;;;;;10.80;4.38;;;;;;;;;;5023213;28;20049;-67
2024/01/20 01:04:51;;;;;;;12.23;3.72;;;;;;;;;;5026224;28;20041;-67
2024/01/20 01:07:17;;;;;;;10.35;3.97;;;;;;;;;;5027946;28;20029;-67
2024/01/20 01:09:43;;;;;;;19.95;4.30;;;;;;;;;;5026866;28;20040;-67
2024/01/20 01:12:10;;;;;;;13.50;4.07;;;;;;;;;;5027033;28;20064;-67
2024/01/20 01:14:36;;;;;;;15.73;4.72;;;;;;;;;;5027043;28;20068;-67
2024/01/20 01:17:02;;;;;;;14.32;4.20;;;;;;;;;;5028372;28;20049;-67
2024/01/20 01:19:28;;;;;;;13.32;4.78;;;;;;;;;;5025800;28;20060;-67
2024/01/20 01:21:54;;;;;;;14.38;4.30;;;;;;;;;;5026953;28;20086;-67
2024/01/20 01:24:21;;;;;;;12.82;4.30;;;;;;;;;;5027351;28;20155;-67
2024/01/20 01:26:47;;;;;;;11.27;4.43;;;;;;;;;;5026484;28;20044;-67
2024/01/20 01:29:13;;;;;;;9.93;4.70;;;;;;;;;;5027689;28;20646;-67
2024/01/20 01:31:39;;;;;;;16.27;4.75;;;;;;;;;;5027567;28;20667;-67
2024/01/20 01:34:05;;;;;;;12.75;4.70;;;;;;;;;;5027533;28;20405;-67
2024/01/20 01:36:31;;;;;;;8.70;3.95;;;;;;;;;;5028291;28;20047;-67
2024/01/20 01:38:57;;;;;;;16.27;5.00;;;;;;;;;;5027467;28;20068;-67
2024/01/20 01:41:23;;;;;;;11.25;4.70;;;;;;;;;;5027395;28;20069;-67
2024/01/20 01:43:49;;;;;;;10.32;5.20;;;;;;;;;;5026392;28;20041;-67
2024/01/20 01:46:15;;;;;;;9.75;4.53;;;;;;;;;;5026537;28;20048;-67
2024/01/20 01:48:41;;;;;;;12.30;4.47;;;;;;;;;;5026699;28;20033;-67
2024/01/20 01:51:07;;;;;;;11.15;4.43;;;;;;;;;;5026742;28;20132;-67
2024/01/20 01:53:34;;;;;;;10.73;5.22;;;;;;;;;;5027330;28;20801;-67
2024/01/20 01:56:01;;;;;;;11.57;5.25;;;;;;;;;;5026389;28;20043;-67
2024/01/20 01:58:27;;;;;;;13.07;4.82;;;;;;;;;;5026633;28;20067;-67
2024/01/20 02:00:54;;;;;;;11.02;4.43;;;;;;;;;;5025170;28;20036;-67
2024/01/20 02:03:20;;;;;;;12.63;5.07;;;;;;;;;;5025655;28;20040;-67
2024/01/20 02:05:46;;;;;;;13.60;5.10;;;;;;;;;;5010103;28;20106;-67
2024/01/20 02:08:12;;;;;;;11.63;4.90;;;;;;;;;;5007362;28;20037;-67
2024/01/20 02:10:38;;;;;;;12.40;5.03;;;;;;;;;;5023557;28;20033;-67
2024/01/20 02:13:05;;;;;;;12.00;5.00;;;;;;;;;;5026155;28;20103;-67
2024/01/20 02:15:32;;;;;;;8.73;4.70;;;;;;;;;;5025510;28;20087;-67
2024/01/20 02:17:58;;;;;;;12.18;4.70;;;;;;;;;;5025484;28;20148;-67
2024/01/20 02:20:25;;;;;;;10.98;4.55;;;;;;;;;;5025728;28;20160;-67
2024/01/20 02:22:51;;;;;;;14.82;5.10;;;;;;;;;;5027867;28;20088;-67
2024/01/20 02:25:17;;;;;;;13.55;4.80;;;;;;;;;;5027171;28;20044;-67
2024/01/20 02:27:43;;;;;;;15.80;5.30;;;;;;;;;;5027626;28;20036;-67
2024/01/20 02:30:09;;;;;;;10.13;5.53;;;;;;;;;;5027819;28;20216;-67
2024/01/20 02:32:35;;;;;;;11.18;5.30;;;;;;;;;;5028019;28;20037;-67
2024/01/20 02:35:03;;;;;;;13.10;5.32;;;;;;;;;;5027609;28;20025;-67
2024/01/20 02:37:29;;;;;;;13.32;5.10;;;;;;;;;;5027901;28;20082;-67
2024/01/20 02:39:56;;;;;;;11.82;5.03;;;;;;;;;;5027868;28;20032;-67
2024/01/20 02:42:22;;;;;;;10.07;4.93;;;;;;;;;;5027784;28;20091;-67
2024/01/20 02:44:50;;;;;;;15.43;6.07;;;;;;;;;;5027988;28;20052;-67
2024/01/20 02:47:16;;;;;;;10.25;4.80;;;;;;;;;;5029634;28;20040;-67
2024/01/20 02:49:42;;;;;;;14.88;5.47;;;;;;;;;;5028349;28;20037;-67
2024/01/20 02:52:08;;;;;;;11.13;5.45;;;;;;;;;;5029434;28;20121;-68
2024/01/20 02:54:34;;;;;;;9.63;5.07;;;;;;;;;;5012015;28;20037;-67
2024/01/20 02:57:00;;;;;;;11.75;5.45;;;;;;;;;;5026502;28;20041;-67
2024/01/20 02:59:26;;;;;;;11.00;5.30;;;;;;;;;;5029000;28;20085;-67
2024/01/20 03:01:52;;;;;;;12.02;5.95;;;;;;;;;;5027916;28;20583;-67
2024/01/20 03:04:18;;;;;;;13.68;5.78;;;;;;;;;;5025556;28;20025;-68
2024/01/20 03:06:44;;;;;;;10.85;5.60;;;;;;;;;;5025863;28;20033;-68
2024/01/20 03:09:14;;;;;;;11.68;6.50;;;;;;;;;;5006307;28;20123;-68
2024/01/20 03:11:41;;;;;;;15.02;6.88;;;;;;;;;;5026447;28;20029;-68
2024/01/20 03:14:08;;;;;;;11.38;6.55;;;;;;;;;;5025634;28;20043;-68
2024/01/20 03:16:34;;;;;;;17.70;7.28;;;;;;;;;;5026540;28;20083;-67
2024/01/20 03:19:00;;;;;;;13.93;8.10;;;;;;;;;;5026834;28;20061;-67
2024/01/20 03:21:26;;;;;;;19.17;7.85;;;;;;;;;;5027660;28;20041;-67
2024/01/20 03:23:53;;;;;;;14.57;8.57;;;;;;;;;;5029294;28;20058;-67
2024/01/20 03:26:20;;;;;;;15.23;8.60;;;;;;;;;;5027303;28;20156;-67
2024/01/20 03:28:46;;;;;;;16.70;9.30;;;;;;;;;;5027116;28;20044;-67
2024/01/20 03:31:12;;;;;;;15.95;9.27;;;;;;;;;;5027467;28;20062;-67
2024/01/20 03:33:38;;;;;;;15.60;9.73;;;;;;;;;;5028941;28;20115;-67
2024/01/20 03:36:04;;;;;;;13.50;9.25;;;;;;;;;;5027724;28;20060;-67
2024/01/20 03:38:30;;;;;;;16.52;9.32;;;;;;;;;;5029239;28;20044;-67
2024/01/20 03:40:56;;;;;;;16.63;9.50;;;;;;;;;;5029691;28;20701;-68
2024/01/20 03:43:22;;;;;;;16.27;10.60;;;;;;;;;;5027956;28;20103;-67
2024/01/20 03:45:48;;;;;;;18.80;11.05;;;;;;;;;;5029452;28;20527;-67
2024/01/20 03:48:14;;;;;;;18.00;10.32;;;;;;;;;;5027608;28;20029;-67
2024/01/20 03:50:40;;;;;;;19.83;10.25;;;;;;;;;;5028005;28;20036;-67
2024/01/20 03:53:07;;;;;;;17.20;9.90;;;;;;;;;;5009872;28;20036;-67
2024/01/20 03:55:33;;;;;;;20.70;11.00;;;;;;;;;;5028087;28;20028;-67
2024/01/20 03:57:59;;;;;;;17.90;10.55;;;;;;;;;;5010110;28;20051;-67
2024/01/20 04:00:25;;;;;;;17.67;10.77;;;;;;;;;;5026084;28;20033;-67
2024/01/20 04:02:51;;;;;;;21.55;11.80;;;;;;;;;;5027045;28;20037;-67
2024/01/20 04:05:17;;;;;;;21.20;10.93;;;;;;;;;;5028168;28;20033;-67
2024/01/20 04:07:43;;;;;;;18.45;10.75;;;;;;;;;;5009193;28;20040;-67
2024/01/20 04:10:09;;;;;;;19.05;10.80;;;;;;;;;;5026318;28;20329;-67
2024/01/20 04:12:36;;;;;;;20.02;11.15;;;;;;;;;;5027573;28;20045;-67
2024/01/20 04:15:02;;;;;;;20.13;11.38;;;;;;;;;;5008880;28;20051;-68
2024/01/20 04:17:29;;;;;;;15.98;11.02;;;;;;;;;;5026622;28;20033;-68
2024/01/20 04:19:55;;;;;;;17.63;10.40;;;;;;;;;;5008451;28;22000;-68
2024/01/20 04:22:21;;;;;;;19.38;10.27;;;;;;;;;;5026663;28;20040;-68
2024/01/20 04:24:47;;;;;;;24.83;11.23;;;;;;;;;;5026886;28;20029;-68
2024/01/20 04:27:13;;;;;;;20.30;11.65;;;;;;;;;;5026126;28;20036;-68
2024/01/20 04:29:39;;;;;;;17.10;10.40;;;;;;;;;;5009846;28;20411;-68
2024/01/20 04:32:05;;;;;;;20.45;11.50;;;;;;;;;;5026563;28;20665;-68
2024/01/20 04:34:31;;;;;;;20.30;11.98;;;;;;;;;;5026547;28;20492;-68
2024/01/20 04:36:57;;;;;;;20.58;11.63;;;;;;;;;;5027387;28;20040;-68
2024/01/20 04:39:23;;;;;;;22.13;11.80;;;;;;;;;;5027081;28;20068;-68
2024/01/20 04:41:49;;;;;;;16.20;10.65;;;;;;;;;;5026411;28;21511;-68
2024/01/20 04:44:15;;;;;;;20.67;10.95;;;;;;;;;;5025491;28;20699;-68
2024/01/20 04:46:41;;;;;;;20.20;11.77;;;;;;;;;;5027008;28;20060;-68
2024/01/20 04:49:08;;;;;;;19.70;11.68;;;;;;;;;;5005650;28;20853;-68
2024/01/20 04:51:34;;;;;;;16.63;11.05;;;;;;;;;;5026858;28;20041;-68
2024/01/20 04:54:00;;;;;;;18.90;10.63;;;;;;;;;;5026804;28;20780;-68
2024/01/20 04:56:26;;;;;;;17.98;11.02;;;;;;;;;;5025807;28;20061;-68
2024/01/20 04:58:53;;;;;;;21.10;11.38;;;;;;;;;;5027058;28;20079;-68
2024/01/20 05:01:20;;;;;;;20.90;11.90;;;;;;;;;;5027228;28;20033;-68
2024/01/20 05:03:46;;;;;;;20.30;11.15;;;;;;;;;;5008992;28;20029;-67
2024/01/20 05:06:12;;;;;;;25.17;12.93;;;;;;;;;;5027305;28;20432;-67
2024/01/20 05:08:38;;;;;;;24.40;13.40;;;;;;;;;;5027142;28;20041;-67
2024/01/20 05:11:04;;;;;;;26.10;13.00;;;;;;;;;;5025208;28;20048;-67
2024/01/20 05:13:31;;;;;;;21.15;11.13;;;;;;;;;;5003138;28;20397;-67
2024/01/20 05:15:57;;;;;;;23.58;12.75;;;;;;;;;;5026209;28;20040;-67
2024/01/20 05:18:23;;;;;;;17.90;12.25;;;;;;;;;;5026180;28;21866;-67
2024/01/20 05:20:49;;;;;;;29.33;15.07;;;;;;;;;;5023979;28;20033;-67
2024/01/20 05:23:15;;;;;;;23.38;13.73;;;;;;;;;;5024273;28;20116;-68
2024/01/20 05:25:41;;;;;;;24.33;13.23;;;;;;;;;;5024023;28;20735;-67
2024/01/20 05:28:07;;;;;;;21.17;12.70;;;;;;;;;;5008138;28;20036;-67
2024/01/20 05:30:33;;;;;;;24.75;13.68;;;;;;;;;;5022993;28;20044;-67
2024/01/20 05:32:59;;;;;;;21.10;12.32;;;;;;;;;;5024669;28;20033;-67
2024/01/20 05:35:25;;;;;;;20.58;12.38;;;;;;;;;;5024056;28;20037;-67
2024/01/20 05:37:51;;;;;;;26.58;13.25;;;;;;;;;;5023379;28;20038;-67
2024/01/20 05:40:18;;;;;;;19.40;11.77;;;;;;;;;;5022874;28;20091;-67
2024/01/20 05:42:44;;;;;;;22.83;12.55;;;;;;;;;;5024202;28;20040;-67
2024/01/20 05:45:10;;;;;;;22.08;12.95;;;;;;;;;;5022854;28;20053;-67
2024/01/20 05:47:36;;;;;;;25.58;13.65;;;;;;;;;;5024028;28;20035;-67
2024/01/20 05:50:06;;;;;;;25.33;14.23;;;;;;;;;;5024183;28;20033;-67
2024/01/20 05:52:32;;;;;;;24.92;13.18;;;;;;;;;;5027997;28;20041;-67
2024/01/20 05:54:58;;;;;;;24.27;13.65;;;;;;;;;;5027293;28;20045;-67
2024/01/20 05:57:24;;;;;;;28.65;13.65;;;;;;;;;;5029090;28;20033;-67
2024/01/20 05:59:50;;;;;;;29.17;15.27;;;;;;;;;;5028471;28;20128;-67
2024/01/20 06:02:16;;;;;;;25.05;14.45;;;;;;;;;;5027661;28;20037;-67
2024/01/20 06:04:42;;;;;;;20.70;13.30;;;;;;;;;;5028778;28;20078;-67
2024/01/20 06:07:08;;;;;;;27.98;13.73;;;;;;;;;;5027047;28;20128;-67
2024/01/20 06:09:34;;;;;;;22.58;13.95;;;;;;;;;;5028515;28;20064;-67
2024/01/20 06:12:00;;;;;;;27.48;14.00;;;;;;;;;;5027655;28;20048;-67
2024/01/20 06:14:26;;;;;;;28.15;14.70;;;;;;;;;;5027365;28;20041;-67
2024/01/20 06:16:53;;;;;;;29.40;13.40;;;;;;;;;;5026528;28;20095;-67
2024/01/20 06:19:19;;;;;;;24.63;13.43;;;;;;;;;;5027312;28;21090;-67
2024/01/20 06:21:45;;;;;;;27.10;14.30;;;;;;;;;;5011303;28;20041;-67
2024/01/20 06:24:12;;;;;;;19.73;11.98;;;;;;;;;;5009954;28;20033;-67
2024/01/20 06:26:38;;;;;;;30.33;14.98;;;;;;;;;;5028727;28;20033;-67
2024/01/20 06:29:04;;;;;;;23.60;14.93;;;;;;;;;;5028524;28;20037;-68
2024/01/20 06:31:30;;;;;;;28.08;14.63;;;;;;;;;;5028077;28;20037;-67
2024/01/20 06:33:56;;;;;;;27.42;13.50;;;;;;;;;;5028178;28;20037;-67
2024/01/20 06:36:25;;;;;;;24.13;14.27;;;;;;;;;;5028137;28;20040;-67
2024/01/20 06:38:51;;;;;;;22.30;13.30;;;;;;;;;;5029425;28;20511;-67
2024/01/20 06:41:17;;;;;;;26.27;13.25;;;;;;;;;;5030216;28;20045;-67
2024/01/20 06:43:43;;;;;;;24.75;12.63;;;;;;;;;;5029274;28;20032;-67
2024/01/20 06:46:09;;;;;;;25.38;12.93;;;;;;;;;;5029018;28;20029;-68
2024/01/20 06:48:35;;;;;;;24.52;12.77;;;;;;;;;;5010788;28;20041;-67
2024/01/20 06:51:03;;;;;;;24.27;13.30;;;;;;;;;;5028451;28;20036;-67
2024/01/20 06:53:29;;;;;;;26.20;14.23;;;;;;;;;;5029077;28;20037;-67
2024/01/20 06:55:55;;;;;;;21.50;12.65;;;;;;;;;;5028952;28;20087;-67
2024/01/20 06:58:22;;;;;;;25.48;13.45;;;;;;;;;;5029250;28;20044;-67
2024/01/20 07:00:48;;;;;;;28.80;14.55;;;;;;;;;;5027453;28;20143;-67
2024/01/20 07:03:17;;;;;;;29.55;13.57;;;;;;;;;;5027158;28;20654;-67
2024/01/20 07:05:43;;;;;;;28.85;14.70;;;;;;;;;;5027607;28;20085;-67
2024/01/20 07:08:10;;;;;;;27.48;14.55;;;;;;;;;;5028722;28;20044;-67
2024/01/20 07:10:36;;;;;;;25.30;14.05;;;;;;;;;;5028833;28;20032;-67
2024/01/20 07:13:02;;;;;;;26.90;14.70;;;;;;;;;;5028141;28;20490;-67
2024/01/20 07:15:28;;;;;;;27.30;14.73;;;;;;;;;;5009368;28;21281;-67
2024/01/20 07:17:57;;;;;;;28.58;15.43;;;;;;;;;;5027833;28;20110;-67
2024/01/20 07:20:24;;;;;;;30.17;14.55;;;;;;;;;;5022887;28;20052;-67
2024/01/20 07:22:51;;;;;;;32.63;15.82;;;;;;;;;;5006514;28;20653;-67
2024/01/20 07:25:18;;;;;;;34.13;15.80;;;;;;;;;;5023530;28;20484;-67
2024/01/20 07:27:44;;;;;;;28.05;14.73;;;;;;;;;;5025909;28;20033;-67
2024/01/20 07:30:10;;;;;;;26.83;15.00;;;;;;;;;;5024263;28;20048;-67
2024/01/20 07:32:40;;;;;;;30.80;15.32;;;;;;;;;;5025001;28;20080;-67
2024/01/20 07:35:07;;;;;;;31.50;15.18;;;;;;;;;;5025047;28;20037;-68
2024/01/20 07:37:36;;;;;;;31.60;15.43;;;;;;;;;;5023929;28;20106;-67
2024/01/20 07:40:03;;;;;;;32.22;16.63;;;;;;;;;;5026539;28;20045;-67
2024/01/20 07:42:29;;;;;;;29.88;15.75;;;;;;;;;;5026693;28;20902;-67
2024/01/20 07:44:56;;;;;;;35.13;16.77;;;;;;;;;;5024294;28;20053;-67
2024/01/20 07:47:22;;;;;;;31.73;17.27;;;;;;;;;;5025545;28;20025;-67
2024/01/20 07:49:48;;;;;;;30.17;15.40;;;;;;;;;;5023762;28;20037;-67
2024/01/20 07:52:14;;;;;;;32.70;15.80;;;;;;;;;;5025191;28;20029;-67
2024/01/20 07:54:40;;;;;;;28.40;16.70;;;;;;;;;;5023595;28;20037;-67
2024/01/20 07:57:06;;;;;;;31.65;15.88;;;;;;;;;;5005991;28;20545;-67
2024/01/20 07:59:32;;;;;;;30.02;15.15;;;;;;;;;;5022160;28;20689;-67
2024/01/20 08:01:58;;;;;;;29.65;15.90;;;;;;;;;;5025753;28;20527;-67
2024/01/20 08:04:24;;;;;;;35.30;17.38;;;;;;;;;;5024768;28;20432;-67
2024/01/20 08:06:50;;;;;;;31.52;16.27;;;;;;;;;;5024082;28;20108;-67
2024/01/20 08:09:16;;;;;;;31.35;17.00;;;;;;;;;;5024486;28;20033;-67
2024/01/20 08:11:42;;;;;;;35.83;16.23;;;;;;;;;;5023882;28;20025;-67
2024/01/20 08:14:08;;;;;;;33.42;16.05;;;;;;;;;;5023787;28;20048;-67
2024/01/20 08:16:35;;;;;;;28.80;16.73;;;;;;;;;;5026421;28;20044;-67
2024/01/20 08:19:01;;;;;;;42.35;16.42;;;;;;;;;;5024540;28;20056;-67
2024/01/20 08:21:27;;;;;;;28.05;16.00;;;;;;;;;;5024723;28;20037;-67
2024/01/20 08:23:54;;;;;;;30.15;17.00;;;;;;;;;;5024502;28;20043;-67
2024/01/20 08:26:20;;;;;;;26.00;15.80;;;;;;;;;;5024197;28;20047;-67
2024/01/20 08:28:46;;;;;;;31.67;17.33;;;;;;;;;;5022381;28;20021;-68
2024/01/20 08:31:12;;;;;;;30.60;15.88;;;;;;;;;;5021732;28;20040;-67
2024/01/20 08:33:39;;;;;;;30.33;15.43;;;;;;;;;;5024904;28;20114;-67
2024/01/20 08:36:05;;;;;;;29.40;16.45;;;;;;;;;;5008844;28;20784;-67
2024/01/20 08:38:31;;;;;;;33.70;16.83;;;;;;;;;;5022836;28;20723;-67
2024/01/20 08:40:57;;;;;;;34.35;18.13;;;;;;;;;;5023895;28;20151;-67
2024/01/20 08:43:23;;;;;;;30.58;16.30;;;;;;;;;;5007039;28;20041;-67
2024/01/20 08:45:51;;;;;;;34.65;17.25;;;;;;;;;;5023895;28;20067;-68
2024/01/20 08:48:17;;;;;;;33.85;18.77;;;;;;;;;;5024210;28;20029;-67
2024/01/20 08:50:43;;;;;;;31.85;17.55;;;;;;;;;;5023547;28;20130;-67
2024/01/20 08:53:09;;;;;;;33.53;17.00;;;;;;;;;;5024343;28;20041;-67
2024/01/20 08:55:35;;;;;;;33.97;16.80;;;;;;;;;;5024651;28;20068;-68
2024/01/20 08:58:01;;;;;;;28.08;17.17;;;;;;;;;;5023312;28;20061;-68
2024/01/20 09:00:28;;;;;;;28.38;16.13;;;;;;;;;;5023123;28;20040;-67
2024/01/20 09:02:54;;;;;;;32.63;18.17;;;;;;;;;;5023371;28;20090;-67
2024/01/20 09:05:20;;;;;;;30.83;17.58;;;;;;;;;;5026865;28;20040;-68
2024/01/20 09:07:46;;;;;;;29.67;15.57;;;;;;;;;;5028296;28;20040;-68
2024/01/20 09:10:12;;;;;;;32.13;17.55;;;;;;;;;;5028400;28;20029;-68
2024/01/20 09:12:38;;;;;;;32.00;16.70;;;;;;;;;;5027239;28;21430;-68
2024/01/20 09:15:04;;;;;;;34.28;17.73;;;;;;;;;;5007701;28;21859;-68
2024/01/20 09:17:30;;;;;;;34.45;17.25;;;;;;;;;;5027806;28;20042;-68
2024/01/20 09:19:57;;;;;;;30.73;16.67;;;;;;;;;;5029215;28;20137;-68
2024/01/20 09:22:23;;;;;;;31.25;17.92;;;;;;;;;;5028282;28;20037;-68
2024/01/20 09:24:49;;;;;;;28.33;16.90;;;;;;;;;;5028506;28;20951;-68
2024/01/20 09:27:16;;;;;;;28.55;16.77;;;;;;;;;;5031977;28;20159;-68
2024/01/20 09:29:42;;;;;;;33.90;17.80;;;;;;;;;;5031629;28;20057;-67
2024/01/20 09:32:08;;;;;;;29.60;17.50;;;;;;;;;;5032698;28;20045;-67
2024/01/20 09:34:34;;;;;;;31.15;16.85;;;;;;;;;;5031737;28;20048;-68
2024/01/20 09:37:00;;;;;;;30.75;17.15;;;;;;;;;;5033584;28;20044;-68
2024/01/20 09:39:27;;;;;;;30.63;17.42;;;;;;;;;;5015423;28;20037;-68
2024/01/20 09:41:53;;;;;;;30.40;17.45;;;;;;;;;;5013969;28;20091;-68
2024/01/20 09:44:20;;;;;;;27.83;15.45;;;;;;;;;;5031947;28;20087;-68
2024/01/20 09:46:46;;;;;;;27.92;16.23;;;;;;;;;;5032343;28;20025;-68
2024/01/20 09:49:12;;;;;;;30.67;16.73;;;;;;;;;;5032272;28;20631;-68
2024/01/20 09:51:43;;;;;;;29.80;16.10;;;;;;;;;;5032391;28;20088;-68
2024/01/20 09:54:09;;;;;;;33.10;16.73;;;;;;;;;;5032661;28;20040;-68
2024/01/20 09:56:35;;;;;;;29.65;16.13;;;;;;;;;;5032205;28;20094;-67
2024/01/20 09:59:02;;;;;;;32.60;17.00;;;;;;;;;;5031769;28;20590;-67
2024/01/20 10:01:29;;;;;;;33.08;15.75;;;;;;;;;;5031225;28;20039;-68
2024/01/20 10:03:58;;;;;;;30.05;16.02;;;;;;;;;;5031508;28;20029;-68
2024/01/20 10:06:24;;;;;;;28.48;16.08;;;;;;;;;;5030710;28;20029;-68
2024/01/20 10:08:51;;;;;;;32.38;16.13;;;;;;;;;;5030496;28;20028;-68
2024/01/20 10:11:17;;;;;;;34.55;16.17;;;;;;;;;;5015203;28;20033;-68
2024/01/20 10:13:43;;;;;;;36.85;16.55;;;;;;;;;;5031077;28;20375;-68
2024/01/20 10:16:09;;;;;;;31.15;15.18;;;;;;;;;;5029642;28;20036;-68
2024/01/20 10:18:36;;;;;;;30.55;15.55;;;;;;;;;;5012114;28;20429;-68
2024/01/20 10:21:08;;;;;;;24.20;13.93;;;;;;;;;;5031043;28;20131;-68
2024/01/20 10:23:36;;;;;;;28.20;15.32;;;;;;;;;;5031031;28;20032;-68
2024/01/20 10:26:05;;;;;;;26.33;14.43;;;;;;;;;;5030720;28;20153;-68
2024/01/20 10:28:32;;;;;;;29.25;15.98;;;;;;;;;;5033718;28;20032;-68
2024/01/20 10:30:58;;;;;;;26.90;14.30;;;;;;;;;;5031205;28;20029;-68
2024/01/20 10:33:25;;;;;;;28.08;15.77;;;;;;;;;;5031430;28;20037;-68
2024/01/20 10:35:54;;;;;;;33.75;16.10;;;;;;;;;;5012741;28;20393;-68
2024/01/20 10:38:21;;;;;;;29.45;14.20;;;;;;;;;;5033487;28;20042;-68
2024/01/20 10:40:53;;;;;;;28.40;15.35;;;;;;;;;;5030337;28;20032;-68
2024/01/20 10:43:20;;;;;;;29.92;14.55;;;;;;;;;;5013922;28;20025;-67
2024/01/20 10:46:08;;;;;;;28.92;14.55;;;;;;;;;;5027566;28;20025;-68
2024/01/20 10:48:37;;;;;;;26.85;13.90;;;;;;;;;;5028008;28;20028;-68
2024/01/20 10:51:07;;;;;;;25.55;13.95;;;;;;;;;;5010710;28;20523;-68
2024/01/20 10:53:33;;;;;;;26.65;14.35;;;;;;;;;;5026243;28;20381;-68
2024/01/20 10:56:00;;;;;;;28.48;15.65;;;;;;;;;;5027740;28;20033;-68
2024/01/20 10:58:30;;;;;;;32.83;16.05;;;;;;;;;;5028664;28;20478;-69
2024/01/20 11:00:56;;;;;;;27.67;14.40;;;;;;;;;;5027127;28;20092;-68
2024/01/20 11:03:23;;;;;;;29.83;15.50;;;;;;;;;;5028143;28;20944;-68
2024/01/20 11:05:49;;;;;;;30.10;14.88;;;;;;;;;;5025928;28;20033;-68
2024/01/20 11:08:23;;;;;;;28.75;15.45;;;;;;;;;;5024159;28;20293;-69
2024/01/20 11:10:51;;;;;;;27.73;14.45;;;;;;;;;;5027637;28;20036;-69
2024/01/20 11:13:18;;;;;;;29.30;15.20;;;;;;;;;;5007739;28;20028;-68
2024/01/20 11:15:49;;;;;;;25.23;14.32;;;;;;;;;;5021731;28;20037;-68
2024/01/20 11:18:28;;;;;;;27.50;14.35;;;;;;;;;;5024241;28;20036;-69
2024/01/20 11:21:01;;;;;;;30.48;16.08;;;;;;;;;;5024604;28;20076;-68
2024/01/20 11:23:27;;;;;;;;;;;;;;;;;;5025083;28;20029;-68
2024/01/20 11:25:54;;;;;;;27.70;14.10;;;;;;;;;;5027323;28;19920;-69
2024/01/20 11:28:47;;;;;;;25.10;13.18;;;;;;;;;;5026037;28;20036;-68
2024/01/20 11:31:19;;;;;;;26.73;14.32;;;;;;;;;;5023806;28;20747;-68
2024/01/20 11:33:46;;;;;;;25.58;13.38;;;;;;;;;;5024836;28;20033;-68
2024/01/20 11:36:12;;;;;;;24.30;14.50;;;;;;;;;;5027958;28;20037;-68
2024/01/20 11:38:38;;;;;;;29.13;16.45;;;;;;;;;;5026850;28;20029;-68
2024/01/20 11:41:04;;;;;;;29.63;14.40;;;;;;;;;;5026123;28;20037;-68
2024/01/20 11:43:30;;;;;;;33.80;15.95;;;;;;;;;;5025451;28;20029;-68
2024/01/20 11:45:56;;;;;;;29.42;16.67;;;;;;;;;;5025723;28;20146;-68
2024/01/20 11:48:23;;;;;;;29.83;16.55;;;;;;;;;;5027202;28;20032;-68
2024/01/20 11:50:49;;;;;;;30.38;15.48;;;;;;;;;;5027479;28;20033;-66
2024/01/20 11:53:16;;;;;;;27.20;14.95;;;;;;;;;;5021155;28;20039;-67
2024/01/20 11:56:03;;;;;;;27.70;15.80;;;;;;;;;;5000392;28;20462;-66
2024/01/20 11:58:32;;;;;;;34.72;17.48;;;;;;;;;;5005824;28;20032;-67
2024/01/20 12:00:59;;;;;;;30.00;17.15;;;;;;;;;;5022522;28;20370;-67
2024/01/20 12:03:29;;;;;;;30.58;16.77;;;;;;;;;;5023182;28;20034;-67
2024/01/20 12:05:55;;;;;;;31.58;17.95;;;;;;;;;;5022432;28;20033;-66
2024/01/20 12:08:22;;;;;;;29.70;17.27;;;;;;;;;;5021512;28;20625;-66
2024/01/20 12:10:48;;;;;;;34.35;18.88;;;;;;;;;;5025162;28;20036;-66
2024/01/20 12:13:15;;;;;;;32.45;18.33;;;;;;;;;;5007840;28;20037;-66
2024/01/20 12:15:41;;;;;;;32.13;18.17;;;;;;;;;;5024253;28;20061;-66
2024/01/20 12:18:07;;;;;;;31.10;17.52;;;;;;;;;;5025225;28;20033;-66
2024/01/20 12:20:33;;;;;;;30.00;16.92;;;;;;;;;;5026396;28;20107;-66
2024/01/20 12:23:02;;;;;;;28.38;17.77;;;;;;;;;;5026075;28;20021;-66
2024/01/20 12:25:30;;;;;;;31.92;18.13;;;;;;;;;;5025396;28;20035;-66
2024/01/20 12:27:58;;;;;;;27.95;17.52;;;;;;;;;;5026287;28;20480;-66
2024/01/20 12:30:24;;;;;;;30.17;17.90;;;;;;;;;;5009675;28;20029;-66
2024/01/20 12:32:50;;;;;;;30.35;17.65;;;;;;;;;;5026067;28;20091;-66
2024/01/20 12:35:16;;;;;;;30.73;17.38;;;;;;;;;;5026330;28;20037;-66
2024/01/20 12:37:42;;;;;;;32.22;17.08;;;;;;;;;;5025718;28;20040;-66
2024/01/20 12:40:09;;;;;;;34.53;16.73;;;;;;;;;;5025988;28;20048;-66
2024/01/20 12:42:35;;;;;;;32.85;15.90;;;;;;;;;;5025083;28;20135;-66
2024/01/20 12:45:01;;;;;;;33.13;16.33;;;;;;;;;;5026277;28;20043;-66
2024/01/20 12:47:28;;;;;;;31.13;16.13;;;;;;;;;;5008656;28;20033;-66
2024/01/20 12:49:54;;;;;;;29.35;16.15;;;;;;;;;;5026408;28;20032;-66
2024/01/20 12:52:20;;;;;;;26.85;16.20;;;;;;;;;;5025705;28;20487;-66
2024/01/20 12:54:46;;;;;;;29.83;15.52;;;;;;;;;;5022748;28;20041;-66
2024/01/20 12:57:13;;;;;;;25.83;16.13;;;;;;;;;;5018630;28;20029;-66
2024/01/20 12:59:39;;;;;;;28.10;15.60;;;;;;;;;;5024063;28;20990;-66
2024/01/20 13:02:05;;;;;;;24.90;14.75;;;;;;;;;;5029535;28;20653;-66
2024/01/20 13:04:31;;;;;;;24.77;14.63;;;;;;;;;;5025793;28;20032;-66
2024/01/20 13:06:57;;;;;;;25.38;13.50;;;;;;;;;;5029223;28;20025;-65
2024/01/20 13:09:23;;;;;;;23.10;13.60;;;;;;;;;;5028845;28;20033;-66
2024/01/20 13:11:49;;;;;;;20.90;11.82;;;;;;;;;;5028197;28;21456;-66
2024/01/20 13:14:15;;;;;;;26.48;13.80;;;;;;;;;;5029057;28;20551;-67
2024/01/20 13:16:42;;;;;;;22.17;13.68;;;;;;;;;;5029676;28;20902;-66
2024/01/20 13:19:08;;;;;;;22.48;12.13;;;;;;;;;;5025764;28;20164;-67
2024/01/20 13:21:35;;;;;;;23.75;12.45;;;;;;;;;;5007919;28;20033;-66
2024/01/20 13:24:01;;;;;;;21.58;12.57;;;;;;;;;;4989794;28;20084;-66
2024/01/20 13:26:27;;;;;;;24.38;12.70;;;;;;;;;;5008263;28;20037;-67
2024/01/20 13:28:53;;;;;;;23.05;12.25;;;;;;;;;;5010003;28;20028;-67
2024/01/20 13:31:20;;;;;;;21.58;11.68;;;;;;;;;;5007869;28;20030;-67
2024/01/20 13:33:46;;;;;;;22.27;11.32;;;;;;;;;;5009335;28;20033;-66
2024/01/20 13:36:12;;;;;;;20.00;11.98;;;;;;;;;;5007784;28;20677;-66
2024/01/20 13:38:38;;;;;;;25.73;12.43;;;;;;;;;;5007666;28;20040;-67
2024/01/20 13:41:05;;;;;;;20.95;12.13;;;;;;;;;;5007450;28;20041;-66
2024/01/20 13:43:31;;;;;;;24.65;12.57;;;;;;;;;;5004312;28;20817;-66
2024/01/20 13:45:57;;;;;;;24.17;12.68;;;;;;;;;;5008184;28;20624;-66
2024/01/20 13:48:23;;;;;;;27.42;12.80;;;;;;;;;;5009353;28;20025;-66
2024/01/20 13:50:49;;;;;;;22.98;13.07;;;;;;;;;;5008702;28;20539;-66
2024/01/20 13:53:16;;;;;;;25.08;12.68;;;;;;;;;;5007480;28;20029;-66
2024/01/20 13:55:42;;;;;;;24.92;13.90;;;;;;;;;;5007604;28;20107;-66
2024/01/20 13:58:08;;;;;;;23.00;12.98;;;;;;;;;;5009045;28;21915;-66
2024/01/20 14:00:35;;;;;;;24.88;12.57;;;;;;;;;;5009198;28;20035;-66
2024/01/20 14:03:01;;;;;;;22.17;13.27;;;;;;;;;;5005837;28;20431;-66
2024/01/20 14:05:27;;;;;;;26.17;13.68;;;;;;;;;;5007218;28;20029;-65
2024/01/20 14:07:53;;;;;;;23.40;13.35;;;;;;;;;;5004446;28;20029;-65
2024/01/20 14:10:19;;;;;;;25.35;13.30;;;;;;;;;;5003184;28;20048;-65
2024/01/20 14:12:46;;;;;;;21.75;11.70;;;;;;;;;;5006264;28;20040;-66
2024/01/20 14:15:12;;;;;;;20.83;12.57;;;;;;;;;;5004881;28;20124;-66
2024/01/20 14:17:38;;;;;;;21.67;12.77;;;;;;;;;;4990357;28;20211;-67